Lake Clark National Park, AK

7:10 AM AKDT on August 27, 2016 (GMT -0800)
Sparrevohn | | Change Station

Elev 1588 ft 61.10 °N, 155.57 °W | Updated 15 minutes ago

Clear
Clear
54 °F
Feels Like 54 °F
N
14
Wind Variable Wind from North
Gusts 24 mph

Today
High -- | Low -- °F
--% Chance of Precip.
Yesterday
High -- | Low -- °F
Precip. -- in
Pressure 30.24 in
Visibility 10.0 miles
Clouds Clear
Dew Point 48 °F
Humidity 78%
Rainfall 0.00 in
Snow Depth Not available.
7:01 AM 9:35 PM
Waning Crescent, 24% visible
METAR PASV 271455Z AUTO 01012G21KT 10SM CLR 13/09 A3026 RMK AO2 SLP240 T01250088 54001
Pressure 30.24 in
Visibility 10.0 miles
Clouds Clear
Dew Point 48 °F
Humidity 78%
Rainfall 0.00 in
Snow Depth Not available.
7:01 AM 9:35 PM
Waning Crescent, 24% visible
METAR PASV 271455Z AUTO 01012G21KT 10SM CLR 13/09 A3026 RMK AO2 SLP240 T01250088 54001

10-Day Weather Forecast

Almanac

Astronomy

Aug. 27, 2016 Rise Set
Actual Time
Civil Twilight
Nautical Twilight
Astronomical Twilight
Moon
Length of Visible Light
Length of Day
Tomorrow will be .
, % of the Moon is Illuminated

Today's Extremes

State Highs State Lows

Community

WunderPhotos

Upload Photos

1,935,354 photos uploaded!

WunderBlog® & News

Nearby

Air Quality

  Air Quality AQ Index Pollutant
Not available.

Snow Depth

Station Depth Elevation

Earthquake Activity

City Distance Mag. Time & Date
Minimum magnitude displayed is 2.5.

Coastal Water Temperatures

Place Temperature

Stations

Nearby Weather Stations

Station Location Temp. Windchill Dew Point Humidity Wind Precip. Elev Updated Type
                   

Watches & Warnings

There are currently no watches in effect.